Time;durP1;ratioP1;P1;durP2;ratioP2;P2;SDS_P1;SDS_P2;PMS_P1;PMS_P2;Temp;Humidity;BMP_temperature;BMP_pressure;BME280_temperature;BME280_humidity;BME280_pressure;Samples;Min_cycle;Max_cycle;Signal;HPM_P1;HPM_P2
2022/12/02 00:01:32;;;;;;;7.32;5.75;;;;;;;;;;5012027;28;20437;-85
2022/12/02 00:03:58;;;;;;;7.28;4.70;;;;;;;;;;5012173;28;20061;-84
2022/12/02 00:06:42;;;;;;;8.18;5.80;;;;;;;;;;5012365;28;20022;-84
2022/12/02 00:09:27;;;;;;;7.90;5.60;;;;;;;;;;5012182;28;20024;-84
2022/12/02 00:11:53;;;;;;;8.02;5.38;;;;;;;;;;5012209;28;20517;-84
2022/12/02 00:14:27;;;;;;;6.85;5.13;;;;;;;;;;4994638;28;20034;-83
2022/12/02 00:16:54;;;;;;;6.95;5.18;;;;;;;;;;5012236;28;20021;-84
2022/12/02 00:19:20;;;;;;;7.95;5.85;;;;;;;;;;5012208;28;20497;-84
2022/12/02 00:21:49;;;;;;;7.90;5.68;;;;;;;;;;5012176;28;20153;-85
2022/12/02 00:24:15;;;;;;;8.52;5.70;;;;;;;;;;5012126;28;20034;-84
2022/12/02 00:26:41;;;;;;;9.18;6.13;;;;;;;;;;5012769;28;20056;-85
2022/12/02 00:29:07;;;;;;;8.52;5.60;;;;;;;;;;4998154;28;20123;-84
2022/12/02 00:31:34;;;;;;;8.15;6.35;;;;;;;;;;5015421;28;20105;-85
2022/12/02 00:34:00;;;;;;;7.80;5.65;;;;;;;;;;5015698;28;20069;-84
2022/12/02 00:36:27;;;;;;;6.90;5.20;;;;;;;;;;5015628;28;20497;-84
2022/12/02 00:38:53;;;;;;;7.40;5.47;;;;;;;;;;5015440;28;20085;-85
2022/12/02 00:41:19;;;;;;;5.50;4.43;;;;;;;;;;4997949;28;20113;-83
2022/12/02 00:46:30;;;;;;;7.38;5.13;;;;;;;;;;5015546;28;20037;-84
2022/12/02 00:48:57;;;;;;;6.75;5.20;;;;;;;;;;4997858;28;20088;-85
2022/12/02 00:51:23;;;;;;;15.32;5.60;;;;;;;;;;5015088;28;20018;-83
2022/12/02 00:53:49;;;;;;;6.40;4.80;;;;;;;;;;5015427;28;20096;-84
2022/12/02 00:56:15;;;;;;;7.28;5.10;;;;;;;;;;5015211;28;20026;-84
2022/12/02 00:58:41;;;;;;;7.43;5.20;;;;;;;;;;5015032;28;20037;-85
2022/12/02 01:01:07;;;;;;;8.43;5.43;;;;;;;;;;5014934;28;20032;-83
2022/12/02 01:03:33;;;;;;;7.28;5.82;;;;;;;;;;5014919;28;20466;-85
2022/12/02 01:06:00;;;;;;;7.82;5.13;;;;;;;;;;5015072;28;20037;-84
2022/12/02 01:08:26;;;;;;;8.43;5.50;;;;;;;;;;4997405;28;20405;-84
2022/12/02 01:10:53;;;;;;;7.57;5.75;;;;;;;;;;5015029;28;20029;-84
2022/12/02 01:13:19;;;;;;;8.88;6.38;;;;;;;;;;5014895;28;20033;-84
2022/12/02 01:15:45;;;;;;;7.47;5.70;;;;;;;;;;5014842;28;20378;-84
2022/12/02 01:18:11;;;;;;;6.60;4.82;;;;;;;;;;5014834;28;20032;-84
2022/12/02 01:20:37;;;;;;;6.68;5.35;;;;;;;;;;5014607;28;20033;-84
2022/12/02 01:23:03;;;;;;;7.80;5.10;;;;;;;;;;5014782;28;21100;-84
2022/12/02 01:25:29;;;;;;;7.78;5.30;;;;;;;;;;4997137;28;20109;-84
2022/12/02 01:27:56;;;;;;;8.13;6.18;;;;;;;;;;5014578;28;20021;-84
2022/12/02 01:30:22;;;;;;;9.85;6.15;;;;;;;;;;5014658;28;20042;-84
2022/12/02 01:32:48;;;;;;;7.10;5.47;;;;;;;;;;5014463;28;20032;-84
2022/12/02 01:35:15;;;;;;;7.05;5.28;;;;;;;;;;5014473;28;20071;-83
2022/12/02 01:37:41;;;;;;;7.93;5.68;;;;;;;;;;5014167;28;20025;-84
2022/12/02 01:40:08;;;;;;;8.48;6.57;;;;;;;;;;5013822;28;20033;-84
2022/12/02 01:42:34;;;;;;;8.93;6.30;;;;;;;;;;5014312;28;20065;-84
2022/12/02 01:45:01;;;;;;;8.80;6.35;;;;;;;;;;5014273;28;20450;-84
2022/12/02 01:47:27;;;;;;;9.13;6.38;;;;;;;;;;5014237;28;20033;-84
2022/12/02 01:49:53;;;;;;;9.45;5.85;;;;;;;;;;5014116;28;20018;-85
2022/12/02 01:52:19;;;;;;;7.93;5.63;;;;;;;;;;4996634;28;20441;-84
2022/12/02 01:54:45;;;;;;;8.30;6.35;;;;;;;;;;5014008;28;20064;-84
2022/12/02 01:57:13;;;;;;;9.52;6.43;;;;;;;;;;5014080;28;20026;-84
2022/12/02 01:59:40;;;;;;;6.85;5.55;;;;;;;;;;5013981;28;20026;-84
2022/12/02 02:02:32;;;;;;;7.75;5.65;;;;;;;;;;5013833;28;20053;-89
2022/12/02 02:05:03;;;;;;;8.48;6.20;;;;;;;;;;5012122;28;20053;-83
2022/12/02 02:07:30;;;;;;;10.00;6.60;;;;;;;;;;5013632;28;20076;-85
2022/12/02 02:09:57;;;;;;;10.38;6.15;;;;;;;;;;5013975;28;20025;-86
2022/12/02 02:12:23;;;;;;;8.80;5.55;;;;;;;;;;4995977;28;20393;-84
2022/12/02 02:14:50;;;;;;;9.15;6.20;;;;;;;;;;4996223;28;20165;-84
2022/12/02 02:17:16;;;;;;;6.82;5.13;;;;;;;;;;4996025;28;20030;-85
2022/12/02 02:19:43;;;;;;;7.97;5.03;;;;;;;;;;5013601;28;20026;-85
2022/12/02 02:22:14;;;;;;;8.02;5.22;;;;;;;;;;5013631;28;20058;-86
2022/12/02 02:24:40;;;;;;;7.05;5.05;;;;;;;;;;5013546;28;20022;-84
2022/12/02 02:27:06;;;;;;;8.55;5.30;;;;;;;;;;5013650;28;20025;-84
2022/12/02 02:29:33;;;;;;;7.57;4.65;;;;;;;;;;5013399;28;20454;-84
2022/12/02 02:31:59;;;;;;;6.47;4.80;;;;;;;;;;5013548;28;20105;-84
2022/12/02 02:34:26;;;;;;;6.15;4.47;;;;;;;;;;4995687;28;20030;-83
2022/12/02 02:36:52;;;;;;;7.25;4.78;;;;;;;;;;5013609;28;20611;-84
2022/12/02 02:39:18;;;;;;;6.22;4.40;;;;;;;;;;5013261;28;20026;-84
2022/12/02 02:41:45;;;;;;;5.60;4.15;;;;;;;;;;5013184;28;20026;-84
2022/12/02 02:44:11;;;;;;;6.05;4.18;;;;;;;;;;5013220;28;20025;-84
2022/12/02 02:46:37;;;;;;;7.07;4.30;;;;;;;;;;5013147;28;20026;-86
2022/12/02 02:49:03;;;;;;;5.25;4.03;;;;;;;;;;5013262;28;20018;-83
2022/12/02 02:51:29;;;;;;;5.47;4.40;;;;;;;;;;4995283;28;20026;-84
2022/12/02 02:53:55;;;;;;;6.15;3.78;;;;;;;;;;5013234;28;20097;-84
2022/12/02 02:56:21;;;;;;;6.93;3.95;;;;;;;;;;5013155;28;20022;-84
2022/12/02 02:58:47;;;;;;;6.85;4.38;;;;;;;;;;5013014;28;20060;-84
2022/12/02 03:01:19;;;;;;;8.75;5.15;;;;;;;;;;5012911;28;20030;-84
2022/12/02 03:03:47;;;;;;;7.25;4.85;;;;;;;;;;5012864;28;20084;-84
2022/12/02 03:06:14;;;;;;;7.93;4.82;;;;;;;;;;5012989;28;20064;-84
2022/12/02 03:08:42;;;;;;;7.90;4.88;;;;;;;;;;4995175;28;20481;-84
2022/12/02 03:11:08;;;;;;;8.13;5.47;;;;;;;;;;5013015;28;20029;-84
2022/12/02 03:13:36;;;;;;;7.60;5.20;;;;;;;;;;4995043;28;20030;-83
2022/12/02 03:16:04;;;;;;;6.50;4.50;;;;;;;;;;5012925;28;20398;-83
2022/12/02 03:18:30;;;;;;;6.47;4.40;;;;;;;;;;5012562;28;20033;-84
2022/12/02 03:20:57;;;;;;;7.30;5.57;;;;;;;;;;5012749;28;20029;-84
2022/12/02 03:23:23;;;;;;;6.28;4.50;;;;;;;;;;5012610;28;20030;-83
2022/12/02 03:25:49;;;;;;;6.38;5.22;;;;;;;;;;5012618;28;20030;-84
2022/12/02 03:28:15;;;;;;;6.05;4.68;;;;;;;;;;5012840;28;20017;-85
2022/12/02 03:30:42;;;;;;;7.18;4.90;;;;;;;;;;5012410;28;20033;-84
2022/12/02 03:33:08;;;;;;;8.68;4.63;;;;;;;;;;5012740;28;20038;-84
2022/12/02 03:35:34;;;;;;;7.20;5.45;;;;;;;;;;5012337;28;20025;-84
2022/12/02 03:38:00;;;;;;;7.63;4.93;;;;;;;;;;5012770;28;20056;-85
2022/12/02 03:40:26;;;;;;;6.38;5.63;;;;;;;;;;5012494;28;20022;-84
2022/12/02 03:42:52;;;;;;;7.57;5.68;;;;;;;;;;5012360;28;20030;-84
2022/12/02 03:45:18;;;;;;;6.13;4.55;;;;;;;;;;5012475;28;20104;-84
2022/12/02 03:47:45;;;;;;;7.30;5.82;;;;;;;;;;4994732;28;20435;-83
2022/12/02 03:50:11;;;;;;;6.93;5.10;;;;;;;;;;5012680;28;20049;-84
2022/12/02 03:52:38;;;;;;;6.00;4.22;;;;;;;;;;5012402;28;20034;-84
2022/12/02 03:55:04;;;;;;;6.40;5.20;;;;;;;;;;5012626;28;20026;-84
2022/12/02 03:57:34;;;;;;;8.32;5.13;;;;;;;;;;5012423;28;20034;-84
2022/12/02 04:00:01;;;;;;;6.10;5.22;;;;;;;;;;5012585;28;20029;-84
2022/12/02 04:02:27;;;;;;;6.90;5.13;;;;;;;;;;5014219;28;20045;-84
2022/12/02 04:04:53;;;;;;;6.72;4.97;;;;;;;;;;5016103;28;20049;-84
2022/12/02 04:07:19;;;;;;;6.28;4.47;;;;;;;;;;4998738;28;20032;-84
2022/12/02 04:09:45;;;;;;;6.18;4.22;;;;;;;;;;5015983;28;20029;-84
2022/12/02 04:12:11;;;;;;;8.45;5.78;;;;;;;;;;5016060;28;20025;-84
2022/12/02 04:14:37;;;;;;;6.30;4.43;;;;;;;;;;5015868;28;20378;-84
2022/12/02 04:17:03;;;;;;;6.22;4.70;;;;;;;;;;5015790;28;20053;-84
2022/12/02 04:19:29;;;;;;;7.95;5.60;;;;;;;;;;5015831;28;20018;-83
2022/12/02 04:21:56;;;;;;;6.68;5.10;;;;;;;;;;5015645;28;20429;-83
2022/12/02 04:24:22;;;;;;;8.02;5.05;;;;;;;;;;5015780;28;20105;-84
2022/12/02 04:26:48;;;;;;;7.60;5.60;;;;;;;;;;5015687;28;20034;-84
2022/12/02 04:29:14;;;;;;;6.40;4.78;;;;;;;;;;5015879;28;20026;-84
2022/12/02 04:31:40;;;;;;;8.80;5.93;;;;;;;;;;5015621;28;20018;-84
2022/12/02 04:34:06;;;;;;;7.13;5.13;;;;;;;;;;5015661;28;20362;-85
2022/12/02 04:36:32;;;;;;;12.40;7.80;;;;;;;;;;5015628;28;20033;-84
2022/12/02 04:38:58;;;;;;;7.75;5.68;;;;;;;;;;5015478;28;20065;-85
2022/12/02 04:41:24;;;;;;;11.05;6.47;;;;;;;;;;5015482;28;20588;-83
2022/12/02 04:43:50;;;;;;;7.18;5.25;;;;;;;;;;5015187;28;20173;-84
2022/12/02 04:46:16;;;;;;;8.25;5.65;;;;;;;;;;4997689;28;20018;-84
2022/12/02 04:48:42;;;;;;;8.18;5.18;;;;;;;;;;5015385;28;20022;-84
2022/12/02 04:51:08;;;;;;;7.60;4.75;;;;;;;;;;5015082;28;20056;-85
2022/12/02 04:53:34;;;;;;;6.25;4.75;;;;;;;;;;5027355;28;20443;-83
2022/12/02 04:56:00;;;;;;;5.90;4.20;;;;;;;;;;5017173;28;20022;-83
2022/12/02 04:58:27;;;;;;;6.80;4.97;;;;;;;;;;5035099;28;20495;-83
2022/12/02 05:00:53;;;;;;;6.68;5.35;;;;;;;;;;5020544;28;20091;-84
2022/12/02 05:03:19;;;;;;;6.25;4.43;;;;;;;;;;4999084;28;20104;-84
2022/12/02 05:05:45;;;;;;;7.68;4.43;;;;;;;;;;5034628;28;20086;-84
2022/12/02 05:08:20;;;;;;;10.15;6.00;;;;;;;;;;5017012;28;20523;-84
2022/12/02 05:10:51;;;;;;;6.38;4.60;;;;;;;;;;5016918;28;20031;-85
2022/12/02 05:13:22;;;;;;;10.60;5.72;;;;;;;;;;5015834;28;20022;-83
2022/12/02 05:16:11;;;;;;;6.28;4.90;;;;;;;;;;5034272;28;20029;-84
2022/12/02 05:18:37;;;;;;;7.10;4.55;;;;;;;;;;5032332;28;20365;-85
2022/12/02 05:21:03;;;;;;;8.00;5.70;;;;;;;;;;5034649;28;20029;-83
2022/12/02 05:23:29;;;;;;;8.20;5.10;;;;;;;;;;5033847;28;20026;-85
2022/12/02 05:25:55;;;;;;;8.98;6.57;;;;;;;;;;5016458;28;20038;-83
2022/12/02 05:28:24;;;;;;;8.15;4.55;;;;;;;;;;5032719;28;20032;-83
2022/12/02 05:30:50;;;;;;;7.18;4.47;;;;;;;;;;5026922;28;20033;-83
2022/12/02 05:33:16;;;;;;;6.47;4.43;;;;;;;;;;5014423;28;20037;-84
2022/12/02 05:35:42;;;;;;;8.18;5.35;;;;;;;;;;4996893;28;20057;-83
2022/12/02 05:38:08;;;;;;;7.30;5.25;;;;;;;;;;5034300;28;20029;-83
2022/12/02 05:40:43;;;;;;;8.02;5.72;;;;;;;;;;5032970;28;20025;-83
2022/12/02 05:43:21;;;;;;;13.27;7.10;;;;;;;;;;4999280;28;20026;-83
2022/12/02 05:45:47;;;;;;;11.98;8.38;;;;;;;;;;5013803;28;20026;-81
2022/12/02 05:48:15;;;;;;;9.32;7.13;;;;;;;;;;5014609;28;20049;-81
2022/12/02 05:50:41;;;;;;;13.23;9.02;;;;;;;;;;5019706;28;20030;-81
2022/12/02 05:53:26;;;;;;;12.88;8.68;;;;;;;;;;5013549;28;20032;-81
2022/12/02 05:55:53;;;;;;;11.45;7.82;;;;;;;;;;5021421;28;20402;-81
2022/12/02 05:58:20;;;;;;;10.48;6.93;;;;;;;;;;5033271;28;20029;-81
2022/12/02 06:01:09;;;;;;;11.75;7.25;;;;;;;;;;5033377;28;20040;-82
2022/12/02 06:03:35;;;;;;;11.32;8.07;;;;;;;;;;5012264;28;20091;-81
2022/12/02 06:06:01;;;;;;;12.60;7.72;;;;;;;;;;5013914;28;20061;-82
2022/12/02 06:08:32;;;;;;;11.25;7.82;;;;;;;;;;5013914;28;20080;-81
2022/12/02 06:11:02;;;;;;;11.98;6.93;;;;;;;;;;5013645;28;20567;-81
2022/12/02 06:13:31;;;;;;;8.85;6.55;;;;;;;;;;5013928;28;20038;-81
2022/12/02 06:15:58;;;;;;;9.75;6.85;;;;;;;;;;4995475;28;20109;-81
2022/12/02 06:18:27;;;;;;;10.95;7.15;;;;;;;;;;5017777;28;20025;-82
2022/12/02 06:20:56;;;;;;;11.75;8.10;;;;;;;;;;5015463;28;20026;-81
2022/12/02 06:23:25;;;;;;;13.15;9.52;;;;;;;;;;5033048;28;20060;-82
2022/12/02 06:25:51;;;;;;;12.55;8.52;;;;;;;;;;5031974;28;20018;-81
2022/12/02 06:28:26;;;;;;;13.70;8.40;;;;;;;;;;5032964;28;20026;-81
2022/12/02 06:30:56;;;;;;;13.27;9.88;;;;;;;;;;4991657;28;20780;-81
2022/12/02 06:33:22;;;;;;;13.85;8.85;;;;;;;;;;5012635;28;20634;-81
2022/12/02 06:35:49;;;;;;;15.00;9.63;;;;;;;;;;4996188;28;20038;-83
2022/12/02 06:38:29;;;;;;;14.73;9.25;;;;;;;;;;5016513;28;20164;-80
2022/12/02 06:40:55;;;;;;;14.60;10.35;;;;;;;;;;5007366;28;20031;-80
2022/12/02 06:43:31;;;;;;;16.17;7.93;;;;;;;;;;5005396;28;20033;-81
2022/12/02 06:45:58;;;;;;;14.77;11.27;;;;;;;;;;5009605;28;20026;-79
2022/12/02 06:48:26;;;;;;;17.15;11.48;;;;;;;;;;5008331;28;20022;-79
2022/12/02 06:50:52;;;;;;;27.45;18.35;;;;;;;;;;5010884;28;20473;-81
2022/12/02 06:53:21;;;;;;;18.83;11.98;;;;;;;;;;5010929;28;20033;-80
2022/12/02 06:55:48;;;;;;;17.02;11.93;;;;;;;;;;5011117;28;20097;-78
2022/12/02 06:58:21;;;;;;;15.95;11.60;;;;;;;;;;5011754;28;20392;-80
2022/12/02 07:00:47;;;;;;;15.27;11.95;;;;;;;;;;5011570;28;20026;-82
2022/12/02 07:03:22;;;;;;;19.48;14.65;;;;;;;;;;5009591;28;20065;-84
2022/12/02 07:05:48;;;;;;;18.33;13.02;;;;;;;;;;5008705;28;20104;-80
2022/12/02 07:08:14;;;;;;;21.50;15.38;;;;;;;;;;5011598;28;20033;-82
2022/12/02 07:10:41;;;;;;;29.98;21.85;;;;;;;;;;5009662;28;20037;-82
2022/12/02 07:13:13;;;;;;;27.52;19.48;;;;;;;;;;5009545;28;20552;-83
2022/12/02 07:15:42;;;;;;;27.65;19.30;;;;;;;;;;5008910;28;20076;-83
2022/12/02 07:18:13;;;;;;;67.22;33.30;;;;;;;;;;4978413;28;20042;-80
2022/12/02 07:20:42;;;;;;;187.27;68.60;;;;;;;;;;5002817;28;20030;-83
2022/12/02 07:23:15;;;;;;;122.63;56.20;;;;;;;;;;5004938;28;20030;-82
2022/12/02 07:25:41;;;;;;;122.25;57.75;;;;;;;;;;4997237;28;20092;-79
2022/12/02 07:28:30;;;;;;;34.75;30.73;;;;;;;;;;5010806;28;20520;-79
2022/12/02 07:31:11;;;;;;;30.00;21.05;;;;;;;;;;4999481;28;20069;-84
2022/12/02 07:33:37;;;;;;;38.35;27.60;;;;;;;;;;5004911;28;20033;-82
2022/12/02 07:36:03;;;;;;;40.40;29.45;;;;;;;;;;5012097;28;20030;-81
2022/12/02 07:38:32;;;;;;;27.83;20.08;;;;;;;;;;5034431;28;20436;-83
2022/12/02 07:41:01;;;;;;;66.85;28.73;;;;;;;;;;5024576;28;20126;-82
2022/12/02 07:43:27;;;;;;;22.95;13.73;;;;;;;;;;5014893;28;20122;-81
2022/12/02 07:45:53;;;;;;;40.72;22.35;;;;;;;;;;4996415;28;20030;-82
2022/12/02 07:48:19;;;;;;;42.25;21.55;;;;;;;;;;5014180;28;20037;-82
2022/12/02 07:50:45;;;;;;;39.75;18.60;;;;;;;;;;4994933;28;20026;-83
2022/12/02 07:53:12;;;;;;;13.85;11.07;;;;;;;;;;4999712;28;20038;-82
2022/12/02 07:55:38;;;;;;;19.67;12.57;;;;;;;;;;5018898;28;20034;-83
2022/12/02 07:58:04;;;;;;;17.42;11.60;;;;;;;;;;5019891;28;20101;-85
2022/12/02 08:00:34;;;;;;;21.13;13.55;;;;;;;;;;5012703;28;20042;-84
2022/12/02 08:03:00;;;;;;;12.98;9.60;;;;;;;;;;4998879;28;20054;-81
2022/12/02 08:05:26;;;;;;;33.85;17.25;;;;;;;;;;4994413;28;20026;-85
2022/12/02 08:07:53;;;;;;;14.52;9.57;;;;;;;;;;4994537;28;20038;-85
2022/12/02 08:10:19;;;;;;;19.45;11.52;;;;;;;;;;4992985;28;20030;-78
2022/12/02 08:12:45;;;;;;;13.30;10.18;;;;;;;;;;4978312;28;20097;-78
2022/12/02 08:15:12;;;;;;;11.90;9.00;;;;;;;;;;4981418;28;20033;-79
2022/12/02 08:17:39;;;;;;;10.98;7.88;;;;;;;;;;4989547;28;20038;-80
2022/12/02 08:20:06;;;;;;;30.58;16.20;;;;;;;;;;4981501;28;20082;-78
2022/12/02 08:22:32;;;;;;;19.27;12.07;;;;;;;;;;4974160;28;20073;-80
2022/12/02 08:24:58;;;;;;;19.98;12.60;;;;;;;;;;4986470;28;20050;-81
2022/12/02 08:27:25;;;;;;;16.30;11.23;;;;;;;;;;4996976;28;20026;-78
2022/12/02 08:29:51;;;;;;;16.27;9.27;;;;;;;;;;5003090;28;20554;-81
2022/12/02 08:32:18;;;;;;;24.88;13.65;;;;;;;;;;4988810;28;20429;-80
2022/12/02 08:34:44;;;;;;;17.27;13.18;;;;;;;;;;5006171;28;20026;-79
2022/12/02 08:37:10;;;;;;;22.98;14.27;;;;;;;;;;4997552;28;20116;-79
2022/12/02 08:39:36;;;;;;;22.85;16.10;;;;;;;;;;4994966;28;20030;-80
2022/12/02 08:42:04;;;;;;;38.53;17.45;;;;;;;;;;4978133;28;20029;-81
2022/12/02 08:44:33;;;;;;;27.48;13.57;;;;;;;;;;4995407;28;20030;-79
2022/12/02 08:47:05;;;;;;;43.55;20.27;;;;;;;;;;4992882;28;20023;-81
2022/12/02 08:49:31;;;;;;;37.97;19.55;;;;;;;;;;4994217;28;20031;-78
2022/12/02 08:51:57;;;;;;;41.22;21.65;;;;;;;;;;4995844;28;20030;-77
2022/12/02 08:54:23;;;;;;;77.38;30.98;;;;;;;;;;4997272;28;20037;-78
2022/12/02 08:56:50;;;;;;;492.45;147.90;;;;;;;;;;4985712;28;20041;-77
2022/12/02 08:59:16;;;;;;;425.75;144.80;;;;;;;;;;4992932;28;20256;-78
2022/12/02 09:01:42;;;;;;;466.83;175.20;;;;;;;;;;4998793;28;20046;-78
2022/12/02 09:04:08;;;;;;;489.88;185.32;;;;;;;;;;4981936;28;20037;-79
2022/12/02 09:06:34;;;;;;;100.88;49.72;;;;;;;;;;5014491;28;20026;-78
2022/12/02 09:09:00;;;;;;;56.92;28.35;;;;;;;;;;5017397;28;20037;-80
2022/12/02 09:11:26;;;;;;;41.22;20.35;;;;;;;;;;5033540;28;20032;-81
2022/12/02 09:13:52;;;;;;;62.25;28.80;;;;;;;;;;5012180;28;20034;-82
2022/12/02 09:16:19;;;;;;;160.27;58.15;;;;;;;;;;5016739;28;20044;-81
2022/12/02 09:19:00;;;;;;;130.32;47.95;;;;;;;;;;5014174;28;20030;-82
2022/12/02 09:21:48;;;;;;;98.60;38.90;;;;;;;;;;5009323;28;20456;-80
2022/12/02 09:27:08;;;;;;;78.32;36.28;;;;;;;;;;4998951;28;20034;-82
2022/12/02 09:29:40;;;;;;;64.15;31.95;;;;;;;;;;5011775;28;20038;-83
2022/12/02 09:32:14;;;;;;;101.10;42.40;;;;;;;;;;5022558;28;20374;-84
2022/12/02 09:34:40;;;;;;;80.07;39.60;;;;;;;;;;5003516;28;20121;-83
2022/12/02 09:37:07;;;;;;;93.03;44.15;;;;;;;;;;5014211;28;20389;-82
2022/12/02 09:39:33;;;;;;;550.92;175.52;;;;;;;;;;5012168;28;20061;-81
2022/12/02 09:41:59;;;;;;;502.27;164.18;;;;;;;;;;4993179;28;20042;-80
2022/12/02 09:44:25;;;;;;;380.42;122.38;;;;;;;;;;5012592;28;20452;-82
2022/12/02 09:46:51;;;;;;;239.32;88.43;;;;;;;;;;5007371;28;20026;-81
2022/12/02 09:49:17;;;;;;;188.65;64.57;;;;;;;;;;5010492;28;20076;-80
2022/12/02 09:51:43;;;;;;;127.13;47.35;;;;;;;;;;4994891;28;20113;-82
2022/12/02 09:54:12;;;;;;;156.70;56.10;;;;;;;;;;5012417;28;20501;-83
2022/12/02 09:56:40;;;;;;;149.65;52.60;;;;;;;;;;4994705;28;20042;-80
2022/12/02 09:59:10;;;;;;;126.43;47.08;;;;;;;;;;5008032;28;20513;-80
2022/12/02 10:01:46;;;;;;;;;;;;;;;;;;;;;
2022/12/02 10:04:13;;;;;;;19.50;15.15;;;;;;;;;;5010875;28;20030;-85
2022/12/02 10:06:44;;;;;;;20.75;15.20;;;;;;;;;;5016524;28;20040;-83
2022/12/02 10:09:29;;;;;;;35.10;20.08;;;;;;;;;;4998883;28;20050;-82
2022/12/02 10:11:55;;;;;;;;;;;;;;;;;;5012413;28;20474;-85
2022/12/02 10:14:21;;;;;;;50.00;24.20;;;;;;;;;;5010166;28;19909;-79
2022/12/02 10:16:47;;;;;;;44.38;21.52;;;;;;;;;;5002428;28;20029;-83
2022/12/02 10:19:18;;;;;;;34.83;20.67;;;;;;;;;;5002635;28;20026;-79
2022/12/02 10:21:44;;;;;;;48.95;30.13;;;;;;;;;;5011808;28;20033;-84
2022/12/02 10:24:12;;;;;;;93.18;35.25;;;;;;;;;;5013881;28;20030;-84
2022/12/02 10:26:43;;;;;;;37.75;24.02;;;;;;;;;;4995376;28;20365;-84
2022/12/02 10:29:12;;;;;;;51.22;32.47;;;;;;;;;;4992151;28;20038;-85
2022/12/02 10:31:51;;;;;;;29.13;17.17;;;;;;;;;;5013273;28;20030;-83
2022/12/02 10:34:19;;;;;;;24.83;15.00;;;;;;;;;;5005259;28;20563;-84
2022/12/02 10:36:45;;;;;;;37.45;17.58;;;;;;;;;;5004146;28;20041;-83
2022/12/02 10:39:32;;;;;;;26.13;13.73;;;;;;;;;;5031833;28;20087;-84
2022/12/02 10:42:06;;;;;;;56.83;22.45;;;;;;;;;;5010524;28;20030;-74
2022/12/02 10:44:33;;;;;;;33.67;18.05;;;;;;;;;;5011689;28;20121;-84
2022/12/02 10:47:20;;;;;;;33.42;18.77;;;;;;;;;;5009561;28;20026;-82
2022/12/02 10:49:48;;;;;;;30.95;19.92;;;;;;;;;;5004150;28;20034;-82
2022/12/02 10:52:15;;;;;;;30.98;18.25;;;;;;;;;;5011502;28;20052;-83
2022/12/02 10:54:44;;;;;;;31.85;16.13;;;;;;;;;;5008884;28;20024;-82
2022/12/02 10:57:12;;;;;;;29.75;16.25;;;;;;;;;;5006266;28;20549;-83
2022/12/02 10:59:42;;;;;;;39.85;23.50;;;;;;;;;;4998701;28;20392;-83
2022/12/02 11:02:22;;;;;;;39.88;26.65;;;;;;;;;;5006532;28;20058;-84
2022/12/02 11:04:51;;;;;;;16.60;11.23;;;;;;;;;;5009863;28;20025;-82
2022/12/02 11:07:20;;;;;;;29.02;12.68;;;;;;;;;;5012911;28;20033;-83
2022/12/02 11:09:50;;;;;;;26.40;12.10;;;;;;;;;;4992139;28;20026;-81
2022/12/02 11:12:33;;;;;;;26.92;11.25;;;;;;;;;;5012155;28;20116;-81
2022/12/02 11:14:59;;;;;;;23.42;10.88;;;;;;;;;;5007442;28;20399;-81
2022/12/02 11:17:46;;;;;;;41.28;15.35;;;;;;;;;;5011267;28;20111;-84
2022/12/02 11:20:21;;;;;;;27.95;12.68;;;;;;;;;;4992898;28;20075;-81
2022/12/02 11:23:13;;;;;;;74.78;24.30;;;;;;;;;;5010804;28;20033;-81
2022/12/02 11:25:42;;;;;;;70.40;24.58;;;;;;;;;;4981458;28;20039;-84
2022/12/02 11:28:14;;;;;;;47.15;18.15;;;;;;;;;;5011246;28;20029;-80
2022/12/02 11:30:41;;;;;;;61.53;21.38;;;;;;;;;;5005126;28;20030;-81
2022/12/02 11:33:11;;;;;;;78.30;26.50;;;;;;;;;;5005864;28;20045;-80
2022/12/02 11:35:56;;;;;;;76.55;26.88;;;;;;;;;;4992309;28;20595;-81
2022/12/02 11:38:22;;;;;;;;;;;;;;;;;;4993106;28;20501;-80
2022/12/02 11:40:48;;;;;;;25.75;12.07;;;;;;;;;;5016658;28;19913;-79
2022/12/02 11:43:40;;;;;;;47.05;18.20;;;;;;;;;;5002578;28;20038;-78
2022/12/02 11:46:06;;;;;;;82.45;38.75;;;;;;;;;;4966617;28;20034;-79
2022/12/02 11:48:32;;;;;;;50.65;21.98;;;;;;;;;;5007632;28;20030;-80
2022/12/02 11:50:58;;;;;;;37.88;15.45;;;;;;;;;;5011036;28;20438;-82
2022/12/02 11:53:26;;;;;;;59.70;20.10;;;;;;;;;;5011336;28;20087;-80
2022/12/02 11:55:53;;;;;;;41.53;18.27;;;;;;;;;;4987917;28;20042;-82
2022/12/02 11:58:25;;;;;;;48.30;20.08;;;;;;;;;;5004944;28;20048;-80
2022/12/02 12:01:20;;;;;;;286.63;87.57;;;;;;;;;;4992320;28;20142;-79
2022/12/02 12:03:46;;;;;;;;;;;;;;;;;;5007543;28;20569;-79
2022/12/02 12:06:16;;;;;;;196.43;60.70;;;;;;;;;;4991458;28;20056;-79
2022/12/02 12:08:48;;;;;;;15.80;5.88;;;;;;;;;;5006113;28;20030;-79
2022/12/02 12:11:24;;;;;;;7.07;4.75;;;;;;;;;;5012945;28;20021;-81
2022/12/02 12:14:03;;;;;;;11.75;8.35;;;;;;;;;;5006565;28;20030;-81
2022/12/02 12:16:31;;;;;;;10.25;3.85;;;;;;;;;;5014325;28;20026;-78
2022/12/02 12:18:58;;;;;;;18.13;6.65;;;;;;;;;;5009713;28;20029;-81
2022/12/02 12:21:31;;;;;;;25.58;10.18;;;;;;;;;;5009640;28;20041;-83
2022/12/02 12:24:20;;;;;;;8.05;5.47;;;;;;;;;;4997718;28;20033;-80
2022/12/02 12:27:04;;;;;;;39.30;15.95;;;;;;;;;;5007004;28;20548;-83
2022/12/02 12:29:31;;;;;;;195.38;62.63;;;;;;;;;;5014241;28;20026;-81
2022/12/02 12:31:58;;;;;;;145.73;57.97;;;;;;;;;;5012882;28;20061;-78
2022/12/02 12:34:24;;;;;;;124.53;47.80;;;;;;;;;;5015720;28;20421;-85
2022/12/02 12:36:55;;;;;;;104.20;41.88;;;;;;;;;;5011070;28;20484;-79
2022/12/02 12:39:21;;;;;;;121.60;50.00;;;;;;;;;;4997259;28;20068;-79
2022/12/02 12:41:47;;;;;;;14.45;11.23;;;;;;;;;;5016859;28;20394;-79
2022/12/02 12:44:14;;;;;;;16.52;8.40;;;;;;;;;;5015526;28;20021;-80
2022/12/02 12:46:41;;;;;;;12.25;7.03;;;;;;;;;;5015083;28;20057;-81
2022/12/02 12:49:23;;;;;;;28.95;14.63;;;;;;;;;;5011712;28;20088;-81
2022/12/02 12:51:50;;;;;;;25.55;13.35;;;;;;;;;;5012118;28;20101;-81
2022/12/02 12:54:17;;;;;;;45.28;17.80;;;;;;;;;;5014882;28;20520;-81
2022/12/02 12:56:44;;;;;;;28.88;13.93;;;;;;;;;;5020276;28;20520;-81
2022/12/02 12:59:13;;;;;;;111.45;66.28;;;;;;;;;;5015879;28;20113;-83
2022/12/02 13:01:41;;;;;;;23.80;14.50;;;;;;;;;;5021446;28;20042;-84
2022/12/02 13:04:07;;;;;;;69.90;35.85;;;;;;;;;;5023099;28;20041;-83
2022/12/02 13:06:38;;;;;;;50.85;23.42;;;;;;;;;;5010027;28;20481;-80
2022/12/02 13:09:05;;;;;;;43.72;20.73;;;;;;;;;;4992855;28;20390;-82
2022/12/02 13:11:34;;;;;;;24.27;12.07;;;;;;;;;;5006156;28;20071;-83
2022/12/02 13:14:01;;;;;;;37.05;19.90;;;;;;;;;;5019646;28;20026;-84
2022/12/02 13:16:27;;;;;;;34.80;12.95;;;;;;;;;;5012796;28;20358;-82
2022/12/02 13:18:54;;;;;;;72.07;27.73;;;;;;;;;;5013147;28;20030;-80
2022/12/02 13:21:20;;;;;;;46.25;21.88;;;;;;;;;;5012203;28;20032;-80
2022/12/02 13:23:47;;;;;;;57.13;21.00;;;;;;;;;;5005818;28;20099;-83
2022/12/02 13:26:17;;;;;;;21.77;14.75;;;;;;;;;;5013705;28;20060;-81
2022/12/02 13:28:44;;;;;;;33.28;19.58;;;;;;;;;;5015692;28;20652;-82
2022/12/02 13:31:10;;;;;;;15.50;11.02;;;;;;;;;;5022485;28;20464;-85
2022/12/02 13:33:38;;;;;;;30.52;14.52;;;;;;;;;;5017852;28;20073;-83
2022/12/02 13:36:05;;;;;;;40.58;20.35;;;;;;;;;;5009903;28;20022;-82
2022/12/02 13:38:33;;;;;;;62.08;28.48;;;;;;;;;;5017787;28;20489;-81
2022/12/02 13:41:00;;;;;;;37.38;27.33;;;;;;;;;;5017297;28;20030;-80
2022/12/02 13:43:27;;;;;;;232.02;74.50;;;;;;;;;;5018902;28;20437;-81
2022/12/02 13:45:57;;;;;;;218.43;71.43;;;;;;;;;;4998503;28;20026;-79
2022/12/02 13:48:25;;;;;;;185.23;69.30;;;;;;;;;;5012005;28;20485;-77
2022/12/02 13:50:52;;;;;;;177.60;95.30;;;;;;;;;;4992353;28;20041;-77
2022/12/02 13:53:20;;;;;;;34.92;17.70;;;;;;;;;;5013144;28;20116;-82
2022/12/02 13:55:47;;;;;;;21.58;10.02;;;;;;;;;;5008031;28;20073;-82
2022/12/02 13:58:15;;;;;;;21.73;13.07;;;;;;;;;;5009579;28;20041;-80
2022/12/02 14:00:41;;;;;;;68.93;41.38;;;;;;;;;;5007681;28;20069;-83
2022/12/02 14:03:08;;;;;;;52.47;30.70;;;;;;;;;;5011418;28;20042;-83
2022/12/02 14:05:40;;;;;;;39.65;20.13;;;;;;;;;;5011797;28;20089;-81
2022/12/02 14:08:06;;;;;;;21.42;9.48;;;;;;;;;;5010812;28;20503;-82
2022/12/02 14:10:32;;;;;;;27.42;12.00;;;;;;;;;;5009950;28;20036;-82
2022/12/02 14:12:58;;;;;;;10.07;7.18;;;;;;;;;;5011592;28;20081;-81
2022/12/02 14:15:25;;;;;;;16.65;8.20;;;;;;;;;;5010765;28;20041;-81
2022/12/02 14:17:51;;;;;;;17.70;9.30;;;;;;;;;;5010228;28;20500;-81
2022/12/02 14:20:18;;;;;;;14.32;7.93;;;;;;;;;;5011439;28;20065;-81
2022/12/02 14:22:44;;;;;;;17.77;9.65;;;;;;;;;;5009465;28;20030;-81
2022/12/02 14:25:12;;;;;;;20.38;10.30;;;;;;;;;;5010289;28;20022;-82
2022/12/02 14:27:38;;;;;;;11.05;7.32;;;;;;;;;;5020352;28;20037;-80
2022/12/02 14:30:04;;;;;;;33.92;14.70;;;;;;;;;;5031326;28;20025;-81
2022/12/02 14:32:31;;;;;;;16.35;8.95;;;;;;;;;;5016302;28;20050;-81
2022/12/02 14:34:57;;;;;;;16.27;9.93;;;;;;;;;;4994224;28;20034;-81
2022/12/02 14:37:23;;;;;;;11.57;8.68;;;;;;;;;;5005794;28;20032;-79
2022/12/02 14:39:50;;;;;;;11.48;7.85;;;;;;;;;;5010805;28;20025;-80
2022/12/02 14:42:16;;;;;;;13.07;8.25;;;;;;;;;;5013087;28;20033;-81